Time;durP1;ratioP1;P1;durP2;ratioP2;P2;SDS_P1;SDS_P2;PMS_P1;PMS_P2;Temp;Humidity;BMP_temperature;BMP_pressure;BME280_temperature;BME280_humidity;BME280_pressure;Samples;Min_cycle;Max_cycle;Signal;HPM_P1;HPM_P2
2022/07/30 00:01:14;;;;;;;3.08;2.20;;;23.30;77.00;;;;;;5099745;28;20120;-82
2022/07/30 00:03:40;;;;;;;3.55;1.80;;;23.10;77.50;;;;;;5117309;28;20020;-82
2022/07/30 00:06:05;;;;;;;4.32;2.38;;;23.10;77.90;;;;;;5117924;28;20031;-82
2022/07/30 00:08:31;;;;;;;4.32;2.42;;;23.10;77.90;;;;;;5099899;28;20047;-82
2022/07/30 00:10:56;;;;;;;5.03;2.60;;;23.10;78.00;;;;;;5099299;28;20020;-81
2022/07/30 00:13:22;;;;;;;3.78;2.42;;;23.10;78.20;;;;;;5117974;28;20045;-81
2022/07/30 00:15:48;;;;;;;4.35;2.40;;;23.00;78.40;;;;;;5117405;28;20079;-82
2022/07/30 00:18:14;;;;;;;3.60;2.05;;;23.00;78.70;;;;;;5099397;28;20036;-82
2022/07/30 00:20:39;;;;;;;2.70;2.08;;;22.90;78.80;;;;;;5117132;28;20015;-82
2022/07/30 00:23:05;;;;;;;3.30;2.20;;;22.90;78.90;;;;;;5099521;28;20028;-82
2022/07/30 00:25:31;;;;;;;6.60;2.28;;;22.90;79.20;;;;;;5099472;28;20027;-82
2022/07/30 00:27:57;;;;;;;3.15;2.08;;;22.80;79.40;;;;;;5098809;28;20027;-82
2022/07/30 00:30:23;;;;;;;5.45;2.33;;;22.80;79.60;;;;;;5117864;28;20050;-81
2022/07/30 00:32:49;;;;;;;3.95;2.13;;;22.70;79.70;;;;;;5099001;28;20035;-82
2022/07/30 00:35:15;;;;;;;2.53;2.30;;;22.60;80.30;;;;;;5117511;28;20391;-82
2022/07/30 00:37:40;;;;;;;4.88;2.53;;;22.50;80.60;;;;;;5116722;28;20036;-82
2022/07/30 00:40:08;;;;;;;2.70;2.08;;;22.50;80.90;;;;;;5099900;28;20457;-81
2022/07/30 00:42:45;;;;;;;3.13;2.13;;;22.50;81.20;;;;;;5108340;28;20020;-81
2022/07/30 00:45:13;;;;;;;2.88;2.38;;;22.40;81.60;;;;;;5079448;28;20028;-81
2022/07/30 00:47:39;;;;;;;3.15;2.28;;;22.30;81.70;;;;;;5104014;28;20457;-83
2022/07/30 00:50:06;;;;;;;3.67;2.70;;;22.30;81.80;;;;;;5117518;28;20028;-81
2022/07/30 00:52:33;;;;;;;4.10;2.45;;;22.30;81.90;;;;;;5116858;28;20080;-81
2022/07/30 00:54:59;;;;;;;4.63;2.50;;;22.20;82.00;;;;;;5116588;28;20030;-81
2022/07/30 00:57:26;;;;;;;4.22;2.42;;;22.20;82.10;;;;;;5098695;28;20032;-83
2022/07/30 00:59:53;;;;;;;5.38;2.30;;;22.20;81.90;;;;;;5116915;28;20039;-83
2022/07/30 01:02:19;;;;;;;3.08;2.30;;;22.20;80.80;;;;;;5099892;28;20049;-84
2022/07/30 01:04:44;;;;;;;5.00;2.55;;;22.20;81.60;;;;;;5099382;28;20119;-84
2022/07/30 01:07:10;;;;;;;4.07;2.35;;;22.10;82.10;;;;;;5099451;28;20042;-83
2022/07/30 01:09:38;;;;;;;4.22;2.35;;;22.00;82.40;;;;;;5100040;28;20027;-87
2022/07/30 01:12:05;;;;;;;5.68;3.33;;;22.00;82.10;;;;;;5100359;28;20027;-85
2022/07/30 01:14:35;;;;;;;5.35;3.42;;;22.00;82.00;;;;;;5100328;28;20031;-83
2022/07/30 01:17:02;;;;;;;9.25;3.72;;;22.00;82.20;;;;;;5099023;28;20112;-83
2022/07/30 01:19:47;;;;;;;5.85;3.17;;;22.00;82.20;;;;;;5116580;28;20445;-84
2022/07/30 01:22:34;;;;;;;5.07;2.83;;;21.90;82.50;;;;;;5116787;28;20027;-84
2022/07/30 01:25:02;;;;;;;3.90;2.40;;;21.90;83.10;;;;;;5098434;28;20053;-83
2022/07/30 01:27:42;;;;;;;5.57;2.80;;;21.90;83.20;;;;;;5116353;28;20089;-83
2022/07/30 01:30:09;;;;;;;6.80;2.90;;;21.70;83.80;;;;;;5098564;28;20028;-82
2022/07/30 01:32:40;;;;;;;6.75;2.80;;;21.70;84.10;;;;;;5098129;28;20556;-80
2022/07/30 01:35:08;;;;;;;4.15;2.53;;;21.70;84.50;;;;;;5098790;28;20020;-81
2022/07/30 01:37:34;;;;;;;4.53;2.30;;;21.60;84.80;;;;;;5098268;28;20039;-80
2022/07/30 01:40:00;;;;;;;3.50;2.50;;;21.50;85.20;;;;;;5115819;28;20099;-80
2022/07/30 01:42:28;;;;;;;6.95;2.63;;;21.50;85.60;;;;;;5115774;28;20054;-82
2022/07/30 01:44:56;;;;;;;6.47;2.88;;;21.50;85.80;;;;;;5097530;28;20118;-80
2022/07/30 01:47:22;;;;;;;5.18;2.97;;;21.60;86.00;;;;;;5115785;28;20388;-80
2022/07/30 01:49:50;;;;;;;3.08;2.70;;;21.60;86.10;;;;;;5115415;28;20023;-80
2022/07/30 01:52:17;;;;;;;6.10;3.05;;;21.60;86.30;;;;;;5097852;28;20049;-80
2022/07/30 01:54:45;;;;;;;4.00;2.70;;;21.60;86.50;;;;;;5097274;28;20104;-80
2022/07/30 01:57:13;;;;;;;5.15;2.58;;;21.70;86.50;;;;;;5115615;28;20124;-80
2022/07/30 01:59:40;;;;;;;3.15;2.60;;;21.60;86.40;;;;;;5097398;28;20039;-81
2022/07/30 02:02:06;;;;;;;4.05;2.72;;;21.50;86.90;;;;;;5115779;28;20051;-79
2022/07/30 02:04:32;;;;;;;4.07;2.70;;;21.50;87.20;;;;;;5115568;28;20023;-79
2022/07/30 02:07:12;;;;;;;7.93;2.88;;;21.50;87.40;;;;;;5115636;28;20038;-79
2022/07/30 02:09:47;;;;;;;4.72;2.92;;;21.50;87.60;;;;;;5096889;28;20055;-79
2022/07/30 02:12:28;;;;;;;3.17;2.72;;;21.50;87.70;;;;;;5097721;28;20055;-78
2022/07/30 02:15:19;;;;;;;4.78;2.78;;;21.50;88.10;;;;;;5096781;28;20472;-78
2022/07/30 02:18:04;;;;;;;4.50;2.83;;;21.50;88.40;;;;;;5095814;28;20452;-80
2022/07/30 02:20:32;;;;;;;3.85;2.58;;;21.50;88.40;;;;;;5097464;28;20027;-80
2022/07/30 02:23:04;;;;;;;5.50;2.92;;;21.50;88.50;;;;;;5114803;28;20023;-80
2022/07/30 02:25:33;;;;;;;4.10;2.53;;;21.50;88.60;;;;;;5115021;28;20479;-79
2022/07/30 02:28:03;;;;;;;8.25;2.85;;;21.50;88.60;;;;;;5114881;28;20050;-79
2022/07/30 02:30:33;;;;;;;3.78;2.95;;;21.50;88.60;;;;;;5097475;28;20088;-79
2022/07/30 02:33:03;;;;;;;5.93;2.78;;;21.50;88.40;;;;;;5096639;28;20031;-80
2022/07/30 02:35:30;;;;;;;6.75;2.92;;;21.50;88.10;;;;;;5097343;28;20031;-79
2022/07/30 02:37:58;;;;;;;7.28;2.83;;;21.40;88.30;;;;;;5114566;28;20274;-80
2022/07/30 02:40:24;;;;;;;8.50;2.78;;;21.40;88.60;;;;;;5115168;28;20025;-80
2022/07/30 02:42:51;;;;;;;5.68;2.75;;;21.40;88.60;;;;;;5114454;28;20020;-80
2022/07/30 02:45:18;;;;;;;4.05;2.53;;;21.30;88.50;;;;;;5096836;28;20389;-79
2022/07/30 02:47:47;;;;;;;3.90;2.55;;;21.30;88.80;;;;;;5096469;28;20032;-80
2022/07/30 02:50:15;;;;;;;5.10;2.90;;;21.20;88.90;;;;;;5115101;28;20036;-79
2022/07/30 02:52:42;;;;;;;3.67;2.65;;;21.30;89.00;;;;;;5114674;28;20483;-80
2022/07/30 02:55:10;;;;;;;6.80;2.72;;;21.30;88.90;;;;;;5097170;28;20027;-80
2022/07/30 02:57:40;;;;;;;4.95;3.45;;;21.20;89.10;;;;;;5114701;28;20490;-83
2022/07/30 03:00:07;;;;;;;4.32;2.55;;;21.20;89.40;;;;;;5096926;28;20452;-79
2022/07/30 03:02:33;;;;;;;2.67;2.35;;;21.10;89.80;;;;;;5114553;28;20020;-80
2022/07/30 03:05:01;;;;;;;6.20;2.70;;;21.10;89.90;;;;;;5114190;28;20030;-79
2022/07/30 03:07:28;;;;;;;2.92;2.60;;;21.10;90.10;;;;;;5096309;28;20023;-79
2022/07/30 03:09:55;;;;;;;4.38;2.72;;;21.00;90.10;;;;;;5113925;28;20096;-80
2022/07/30 03:12:22;;;;;;;4.75;2.70;;;20.90;90.40;;;;;;5114263;28;20027;-78
2022/07/30 03:14:49;;;;;;;3.63;2.78;;;20.80;90.60;;;;;;5096108;28;20019;-79
2022/07/30 03:17:16;;;;;;;5.40;3.00;;;20.80;90.70;;;;;;5096510;28;20032;-79
2022/07/30 03:19:43;;;;;;;5.60;3.03;;;20.70;90.90;;;;;;5114016;28;20461;-80
2022/07/30 03:22:09;;;;;;;4.07;2.70;;;20.70;91.00;;;;;;5096409;28;20027;-78
2022/07/30 03:24:37;;;;;;;3.42;3.10;;;20.70;91.10;;;;;;5114129;28;20145;-79
2022/07/30 03:27:04;;;;;;;3.92;3.00;;;20.60;91.10;;;;;;5114408;28;20031;-79
2022/07/30 03:29:31;;;;;;;5.43;3.20;;;20.50;91.20;;;;;;5096406;28;20031;-79
2022/07/30 03:31:59;;;;;;;4.72;3.10;;;20.50;91.20;;;;;;5096093;28;20262;-79
2022/07/30 03:34:25;;;;;;;5.35;3.00;;;20.50;91.40;;;;;;5096972;28;20027;-78
2022/07/30 03:36:52;;;;;;;6.57;3.58;;;20.40;91.50;;;;;;5113729;28;20032;-79
2022/07/30 03:39:18;;;;;;;6.10;3.30;;;20.40;91.60;;;;;;5096151;28;20027;-79
2022/07/30 03:41:45;;;;;;;4.82;2.78;;;20.40;91.70;;;;;;5095921;28;20042;-79
2022/07/30 03:44:11;;;;;;;6.82;3.22;;;20.40;91.70;;;;;;5113481;28;20072;-78
2022/07/30 03:46:39;;;;;;;5.40;2.97;;;20.40;91.80;;;;;;5114071;28;20027;-82
2022/07/30 03:49:05;;;;;;;4.47;3.28;;;20.40;92.00;;;;;;5095985;28;20114;-80
2022/07/30 03:51:33;;;;;;;6.18;3.20;;;20.30;92.00;;;;;;5096257;28;20054;-80
2022/07/30 03:54:00;;;;;;;5.45;3.38;;;20.30;92.10;;;;;;5096058;28;20028;-80
2022/07/30 03:56:26;;;;;;;4.25;2.92;;;20.20;92.30;;;;;;5095955;28;20039;-79
2022/07/30 03:58:52;;;;;;;5.20;3.53;;;20.20;92.30;;;;;;5095997;28;20023;-80
2022/07/30 04:01:17;;;;;;;4.35;3.08;;;20.20;92.40;;;;;;5114194;28;20102;-80
2022/07/30 04:03:43;;;;;;;6.78;3.47;;;20.20;92.40;;;;;;5113599;28;20077;-80
2022/07/30 04:06:09;;;;;;;7.38;3.63;;;20.20;92.50;;;;;;5096237;28;20472;-80
2022/07/30 04:08:34;;;;;;;6.40;4.00;;;20.20;92.40;;;;;;5096082;28;20024;-80
2022/07/30 04:11:00;;;;;;;7.25;4.10;;;20.20;92.40;;;;;;5113813;28;20513;-80
2022/07/30 04:13:25;;;;;;;6.32;3.55;;;20.20;92.50;;;;;;5095925;28;20027;-81
2022/07/30 04:16:15;;;;;;;6.43;3.90;;;20.10;92.50;;;;;;5094555;28;20048;-80
2022/07/30 04:18:48;;;;;;;13.05;4.85;;;20.10;92.80;;;;;;5097855;28;20025;-81
2022/07/30 04:21:17;;;;;;;5.15;3.50;;;20.10;92.80;;;;;;5114835;28;20038;-81
2022/07/30 04:23:44;;;;;;;8.18;3.78;;;20.10;92.80;;;;;;5084938;28;20051;-83
2022/07/30 04:26:11;;;;;;;7.18;3.90;;;20.10;92.70;;;;;;5095607;28;20045;-80
2022/07/30 04:28:37;;;;;;;6.20;3.58;;;20.10;92.70;;;;;;5112994;28;20377;-80
2022/07/30 04:31:04;;;;;;;5.43;3.50;;;20.10;92.70;;;;;;5113585;28;20471;-80
2022/07/30 04:33:30;;;;;;;6.25;3.30;;;20.10;92.80;;;;;;5096097;28;20062;-80
2022/07/30 04:35:55;;;;;;;5.50;3.40;;;20.10;92.70;;;;;;5096054;28;20028;-81
2022/07/30 04:38:21;;;;;;;8.77;3.38;;;20.10;92.70;;;;;;5095889;28;20461;-80
2022/07/30 04:40:47;;;;;;;7.85;3.22;;;20.10;92.70;;;;;;5097645;28;20050;-81
2022/07/30 04:43:13;;;;;;;5.28;3.00;;;20.00;92.70;;;;;;5099842;28;20044;-80
2022/07/30 04:45:39;;;;;;;3.85;2.92;;;20.10;92.70;;;;;;5098647;28;20042;-81
2022/07/30 04:48:06;;;;;;;4.55;2.88;;;20.10;92.70;;;;;;5117262;28;20020;-80
2022/07/30 04:50:34;;;;;;;5.13;3.13;;;20.10;92.70;;;;;;5099324;28;20059;-79
2022/07/30 04:53:01;;;;;;;5.25;2.90;;;20.00;92.80;;;;;;5098740;28;20106;-79
2022/07/30 04:55:27;;;;;;;5.15;3.28;;;20.10;92.80;;;;;;5099321;28;20028;-80
2022/07/30 04:57:54;;;;;;;5.97;2.97;;;20.00;92.80;;;;;;5116212;28;20032;-80
2022/07/30 05:00:20;;;;;;;4.13;3.28;;;20.00;92.90;;;;;;5099118;28;20065;-80
2022/07/30 05:02:48;;;;;;;4.03;2.80;;;20.10;92.80;;;;;;5098494;28;20050;-80
2022/07/30 05:05:16;;;;;;;5.43;3.20;;;20.00;92.80;;;;;;5098753;28;20046;-80
2022/07/30 05:07:43;;;;;;;4.18;2.67;;;20.10;92.80;;;;;;5098254;28;20024;-80
2022/07/30 05:10:11;;;;;;;7.03;3.08;;;20.10;92.80;;;;;;5116845;28;20024;-80
2022/07/30 05:12:37;;;;;;;7.35;3.25;;;20.10;92.80;;;;;;5098704;28;20081;-80
2022/07/30 05:15:08;;;;;;;6.72;2.83;;;20.10;92.70;;;;;;5086510;28;20127;-79
2022/07/30 05:17:35;;;;;;;6.65;2.97;;;20.10;92.70;;;;;;5103314;28;20109;-79
2022/07/30 05:20:00;;;;;;;4.95;3.10;;;20.10;92.70;;;;;;5096656;28;20232;-80
2022/07/30 05:22:28;;;;;;;5.53;2.80;;;20.10;92.60;;;;;;5102215;28;20456;-79
2022/07/30 05:24:58;;;;;;;5.55;3.35;;;20.20;92.50;;;;;;5097878;28;20028;-79
2022/07/30 05:27:23;;;;;;;3.10;2.50;;;20.20;92.50;;;;;;5116644;28;20032;-79
2022/07/30 05:29:49;;;;;;;4.68;2.88;;;20.20;92.50;;;;;;5097852;28;20085;-80
2022/07/30 05:32:15;;;;;;;3.58;2.72;;;20.20;92.30;;;;;;5116494;28;20028;-80
2022/07/30 05:34:40;;;;;;;5.97;3.05;;;20.20;92.30;;;;;;5098233;28;20031;-81
2022/07/30 05:37:06;;;;;;;16.98;7.93;;;20.20;92.20;;;;;;5098258;28;20032;-80
2022/07/30 05:39:32;;;;;;;10.65;5.22;;;20.20;92.20;;;;;;5116302;28;20061;-79
2022/07/30 05:41:57;;;;;;;4.68;3.70;;;20.20;92.10;;;;;;5095290;28;20023;-80
2022/07/30 05:44:23;;;;;;;7.40;3.38;;;20.20;92.10;;;;;;5095908;28;20024;-80
2022/07/30 05:46:48;;;;;;;4.45;3.10;;;20.20;92.00;;;;;;5102121;28;20035;-80
2022/07/30 05:49:14;;;;;;;5.45;3.65;;;20.20;92.00;;;;;;5098084;28;20031;-79
2022/07/30 05:51:40;;;;;;;4.20;2.90;;;20.20;91.90;;;;;;5097158;28;20027;-83
2022/07/30 05:54:06;;;;;;;5.55;3.25;;;20.20;91.90;;;;;;5093960;28;20020;-80
2022/07/30 05:56:32;;;;;;;7.63;3.17;;;20.20;91.90;;;;;;5102108;28;20077;-79
2022/07/30 05:58:58;;;;;;;5.75;3.10;;;20.20;91.80;;;;;;5096842;28;20339;-79
2022/07/30 06:01:23;;;;;;;8.32;2.72;;;20.30;91.80;;;;;;5115625;28;20100;-79
2022/07/30 06:03:49;;;;;;;5.82;3.15;;;20.30;91.70;;;;;;5095994;28;20030;-79
2022/07/30 06:06:14;;;;;;;6.38;2.95;;;20.40;91.60;;;;;;5099383;28;20034;-80
2022/07/30 06:08:40;;;;;;;6.05;2.95;;;20.40;91.50;;;;;;5115158;28;20020;-83
2022/07/30 06:11:07;;;;;;;6.72;3.03;;;20.50;91.40;;;;;;5085075;28;20469;-79
2022/07/30 06:13:35;;;;;;;5.50;2.80;;;20.50;91.20;;;;;;5092510;28;20038;-81
2022/07/30 06:16:00;;;;;;;5.18;2.85;;;20.50;91.10;;;;;;5095766;28;20062;-80
2022/07/30 06:18:26;;;;;;;3.83;2.78;;;20.50;91.10;;;;;;5115142;28;20035;-80
2022/07/30 06:20:53;;;;;;;4.20;2.80;;;20.60;91.10;;;;;;5097201;28;20380;-80
2022/07/30 06:23:22;;;;;;;4.03;2.53;;;20.60;91.10;;;;;;5115596;28;20020;-79
2022/07/30 06:25:48;;;;;;;7.55;3.13;;;20.70;90.80;;;;;;5114418;28;20034;-79
2022/07/30 06:28:15;;;;;;;5.65;2.80;;;20.80;90.70;;;;;;5096908;28;20035;-79
2022/07/30 06:30:41;;;;;;;4.50;2.80;;;20.80;90.60;;;;;;5096464;28;20024;-82
2022/07/30 06:33:06;;;;;;;6.75;3.03;;;20.80;90.50;;;;;;5097346;28;20172;-79
2022/07/30 06:35:33;;;;;;;9.05;3.17;;;20.80;90.50;;;;;;5096964;28;20028;-82
2022/07/30 06:37:59;;;;;;;8.10;2.70;;;20.90;90.40;;;;;;5096290;28;20024;-80
2022/07/30 06:40:25;;;;;;;3.55;3.08;;;21.00;90.40;;;;;;5090516;28;20028;-80
2022/07/30 06:42:50;;;;;;;4.15;2.83;;;21.00;90.30;;;;;;5084906;28;20034;-81
2022/07/30 06:45:16;;;;;;;6.05;2.83;;;21.00;90.20;;;;;;5095950;28;20023;-81
2022/07/30 06:47:42;;;;;;;4.03;2.65;;;21.10;90.00;;;;;;5092090;28;20076;-82
2022/07/30 06:50:08;;;;;;;6.35;2.83;;;21.20;90.00;;;;;;5097790;28;20050;-82
2022/07/30 06:52:33;;;;;;;4.85;2.63;;;21.20;90.00;;;;;;5114634;28;20055;-81
2022/07/30 06:54:59;;;;;;;4.68;2.55;;;21.30;89.60;;;;;;5085278;28;20238;-80
2022/07/30 06:57:24;;;;;;;4.45;2.83;;;21.40;89.60;;;;;;5108287;28;20031;-80
2022/07/30 06:59:50;;;;;;;3.25;2.72;;;21.40;89.30;;;;;;5097219;28;20046;-81
2022/07/30 07:02:16;;;;;;;4.65;2.90;;;21.50;89.30;;;;;;5091000;28;20020;-81
2022/07/30 07:04:41;;;;;;;4.78;2.90;;;21.60;89.00;;;;;;5075576;28;20021;-84
2022/07/30 07:07:07;;;;;;;3.70;2.55;;;21.70;88.80;;;;;;5087753;28;20085;-81
2022/07/30 07:09:33;;;;;;;3.75;2.50;;;21.80;88.50;;;;;;5080310;28;20042;-81
2022/07/30 07:11:58;;;;;;;6.05;3.00;;;21.90;88.30;;;;;;5075283;28;20557;-80
2022/07/30 07:14:24;;;;;;;6.85;2.67;;;21.90;87.90;;;;;;5081653;28;20031;-80
2022/07/30 07:16:50;;;;;;;5.55;2.78;;;22.00;87.70;;;;;;5085630;28;20052;-80
2022/07/30 07:19:15;;;;;;;5.30;2.83;;;22.00;87.50;;;;;;5093944;28;20123;-82
2022/07/30 07:21:41;;;;;;;4.85;2.92;;;22.00;87.40;;;;;;5093371;28;20020;-85
2022/07/30 07:24:07;;;;;;;6.65;2.90;;;22.20;87.80;;;;;;5096062;28;20023;-82
2022/07/30 07:26:34;;;;;;;4.82;2.78;;;22.30;87.50;;;;;;5106426;28;20028;-81
2022/07/30 07:29:00;;;;;;;4.63;2.83;;;22.40;86.50;;;;;;5104020;28;20024;-82
2022/07/30 07:31:26;;;;;;;4.25;3.10;;;22.50;86.30;;;;;;5081250;28;20024;-82
2022/07/30 07:33:53;;;;;;;3.50;2.55;;;22.60;86.20;;;;;;5091200;28;20026;-82
2022/07/30 07:36:20;;;;;;;3.65;2.42;;;22.60;86.20;;;;;;5075657;28;20032;-85
2022/07/30 07:38:46;;;;;;;5.60;2.30;;;22.60;85.60;;;;;;5083936;28;20164;-85
2022/07/30 07:41:11;;;;;;;3.75;2.58;;;22.60;85.40;;;;;;5083690;28;20024;-84
2022/07/30 07:43:37;;;;;;;4.28;2.42;;;22.70;84.90;;;;;;5095222;28;20020;-83
2022/07/30 07:46:03;;;;;;;4.95;2.20;;;22.70;83.80;;;;;;5094107;28;20115;-80
2022/07/30 07:48:29;;;;;;;5.03;2.30;;;22.80;84.00;;;;;;5113859;28;20106;-83
2022/07/30 07:50:54;;;;;;;3.45;2.10;;;22.90;83.60;;;;;;5085108;28;20221;-83
2022/07/30 07:53:20;;;;;;;5.22;2.88;;;22.90;83.10;;;;;;5089206;28;20380;-83
2022/07/30 07:55:46;;;;;;;6.53;2.85;;;22.90;82.50;;;;;;5078596;28;20027;-83
2022/07/30 07:58:12;;;;;;;5.63;2.90;;;23.00;82.70;;;;;;5091578;28;20127;-82
2022/07/30 08:00:39;;;;;;;6.00;3.03;;;23.00;82.50;;;;;;5083364;28;20024;-84
2022/07/30 08:03:04;;;;;;;5.63;2.78;;;23.00;81.70;;;;;;5102516;28;20028;-85
2022/07/30 08:05:31;;;;;;;6.72;2.67;;;23.10;82.20;;;;;;5091228;28;20027;-82
2022/07/30 08:07:56;;;;;;;3.08;2.40;;;23.10;82.00;;;;;;5096396;28;20048;-79
2022/07/30 08:10:22;;;;;;;4.45;2.45;;;23.10;80.80;;;;;;5113535;28;20069;-82
2022/07/30 08:12:48;;;;;;;5.55;2.50;;;23.10;80.90;;;;;;5095371;28;20027;-82
2022/07/30 08:15:14;;;;;;;7.03;2.50;;;23.20;80.90;;;;;;5096582;28;20044;-81
2022/07/30 08:17:44;;;;;;;9.05;2.90;;;23.20;80.20;;;;;;5101011;28;20032;-84
2022/07/30 08:20:12;;;;;;;3.30;2.30;;;23.30;80.80;;;;;;5083068;28;20076;-81
2022/07/30 08:22:38;;;;;;;5.28;2.40;;;23.30;80.20;;;;;;5117677;28;20027;-83
2022/07/30 08:25:04;;;;;;;3.72;2.40;;;23.40;80.30;;;;;;5087726;28;20366;-78
2022/07/30 08:27:30;;;;;;;3.42;2.47;;;23.50;79.70;;;;;;5096848;28;20495;-81
2022/07/30 08:29:56;;;;;;;7.00;2.85;;;23.50;79.00;;;;;;5077883;28;20119;-79
2022/07/30 08:32:21;;;;;;;4.18;2.55;;;23.50;78.30;;;;;;5078095;28;20031;-77
2022/07/30 08:34:47;;;;;;;6.15;2.45;;;23.40;76.50;;;;;;5095536;28;20046;-77
2022/07/30 08:37:13;;;;;;;4.00;2.17;;;23.40;76.50;;;;;;5078293;28;20058;-77
2022/07/30 08:39:38;;;;;;;6.03;2.22;;;23.40;76.70;;;;;;5078236;28;20024;-78
2022/07/30 08:42:04;;;;;;;3.42;2.13;;;23.50;76.60;;;;;;5097395;28;20027;-77
2022/07/30 08:44:31;;;;;;;4.03;2.10;;;23.50;75.60;;;;;;5116143;28;20051;-76
2022/07/30 08:46:58;;;;;;;4.03;1.80;;;23.50;75.20;;;;;;5115555;28;20032;-77
2022/07/30 08:49:24;;;;;;;3.53;2.10;;;23.60;75.10;;;;;;5098445;28;20077;-77
2022/07/30 08:51:50;;;;;;;5.68;2.47;;;23.70;74.90;;;;;;5115618;28;20027;-77
2022/07/30 08:54:18;;;;;;;6.10;2.22;;;23.60;74.50;;;;;;5111280;28;20028;-78
2022/07/30 08:56:44;;;;;;;4.80;2.15;;;23.70;74.00;;;;;;5094824;28;20047;-77
2022/07/30 08:59:10;;;;;;;1.70;1.60;;;23.70;74.50;;;;;;5108223;28;20380;-78
2022/07/30 09:01:36;;;;;;;4.15;2.40;;;23.80;73.70;;;;;;5116314;28;20024;-78
2022/07/30 09:04:02;;;;;;;5.40;2.00;;;23.80;73.40;;;;;;5097419;28;20030;-78
2022/07/30 09:06:28;;;;;;;3.47;1.88;;;23.80;72.80;;;;;;5091198;28;20028;-79
2022/07/30 09:08:54;;;;;;;3.33;1.90;;;23.80;70.60;;;;;;5087150;28;20482;-78
2022/07/30 09:11:20;;;;;;;3.15;1.65;;;23.80;70.10;;;;;;5102381;28;20024;-78
2022/07/30 09:13:45;;;;;;;4.30;1.83;;;23.80;69.80;;;;;;5093562;28;20468;-79
2022/07/30 09:16:22;;;;;;;4.03;1.50;;;23.80;69.90;;;;;;5081139;28;20039;-78
2022/07/30 09:18:49;;;;;;;6.20;2.00;;;23.90;69.60;;;;;;5088029;28;20030;-79
2022/07/30 09:21:24;;;;;;;4.30;2.13;;;24.00;70.00;;;;;;5108656;28;20135;-77
2022/07/30 09:24:05;;;;;;;3.90;1.90;;;24.00;70.40;;;;;;5096293;28;20469;-81
2022/07/30 09:26:50;;;;;;;4.75;1.88;;;24.00;70.80;;;;;;5095018;28;20457;-81
2022/07/30 09:29:22;;;;;;;3.17;1.65;;;24.10;70.20;;;;;;5077901;28;20756;-81
2022/07/30 09:31:55;;;;;;;4.00;1.90;;;24.20;70.60;;;;;;5093946;28;20118;-81
2022/07/30 09:34:25;;;;;;;5.88;2.60;;;24.20;71.30;;;;;;5102658;28;20020;-78
2022/07/30 09:36:51;;;;;;;2.60;1.67;;;24.30;70.80;;;;;;5113837;28;20052;-78
2022/07/30 09:39:35;;;;;;;4.38;2.22;;;24.40;71.20;;;;;;5096288;28;20467;-79
2022/07/30 09:42:02;;;;;;;4.35;1.77;;;24.50;71.20;;;;;;5111954;28;20136;-78
2022/07/30 09:44:29;;;;;;;6.10;2.17;;;24.50;70.70;;;;;;5096176;28;20365;-79
2022/07/30 09:46:57;;;;;;;4.78;2.00;;;24.60;70.70;;;;;;5093922;28;20069;-80
2022/07/30 09:49:25;;;;;;;6.38;1.95;;;24.70;70.30;;;;;;5101210;28;20028;-80
2022/07/30 09:51:52;;;;;;;3.08;1.80;;;24.70;70.10;;;;;;5096213;28;20115;-81
2022/07/30 09:54:18;;;;;;;4.80;2.03;;;24.80;69.60;;;;;;5092458;28;20103;-80
2022/07/30 09:56:45;;;;;;;2.90;1.95;;;25.00;69.60;;;;;;5084732;28;20055;-78
2022/07/30 09:59:28;;;;;;;7.05;2.45;;;25.10;68.80;;;;;;5114132;28;20023;-79
2022/07/30 10:01:55;;;;;;;2.95;2.00;;;25.30;68.10;;;;;;5098448;28;20024;-79
2022/07/30 10:04:29;;;;;;;5.22;2.00;;;25.50;67.80;;;;;;5080397;28;20024;-84
2022/07/30 10:06:55;;;;;;;4.93;2.28;;;25.60;67.90;;;;;;5097479;28;20032;-82
2022/07/30 10:09:44;;;;;;;3.55;2.38;;;25.80;67.70;;;;;;5098393;28;20062;-81
2022/07/30 10:12:12;;;;;;;4.53;1.83;;;25.70;66.80;;;;;;5096459;28;20111;-80
2022/07/30 10:14:42;;;;;;;20.48;2.40;;;25.80;66.50;;;;;;5093550;28;20019;-80
2022/07/30 10:17:08;;;;;;;2.90;1.80;;;25.80;66.30;;;;;;5111452;28;20044;-84
2022/07/30 10:19:35;;;;;;;5.72;1.92;;;25.80;66.40;;;;;;5097127;28;20102;-83
2022/07/30 10:22:02;;;;;;;5.63;2.50;;;25.70;66.30;;;;;;5080052;28;20024;-83
2022/07/30 10:24:30;;;;;;;3.38;1.70;;;25.80;66.20;;;;;;5097793;28;20020;-82
2022/07/30 10:26:55;;;;;;;3.58;2.00;;;26.00;66.10;;;;;;5097251;28;20063;-82
2022/07/30 10:29:22;;;;;;;3.05;1.70;;;26.10;65.60;;;;;;5080040;28;20470;-81
2022/07/30 10:31:49;;;;;;;3.50;1.83;;;26.10;65.20;;;;;;5081228;28;20027;-79
2022/07/30 10:34:16;;;;;;;3.70;1.52;;;26.00;65.10;;;;;;5080670;28;20045;-79
2022/07/30 10:36:48;;;;;;;2.85;1.75;;;25.90;65.20;;;;;;5110999;28;20035;-82
2022/07/30 10:39:23;;;;;;;4.05;1.95;;;25.90;65.00;;;;;;5092717;28;20023;-83
2022/07/30 10:42:25;;;;;;;5.75;1.70;;;25.80;64.00;;;;;;5090852;28;20437;-82
2022/07/30 10:45:12;;;;;;;2.08;1.73;;;25.70;64.10;;;;;;5087890;28;20030;-84
2022/07/30 10:47:38;;;;;;;2.10;1.58;;;25.90;64.00;;;;;;5090424;28;20019;-85
2022/07/30 10:50:16;;;;;;;3.03;1.55;;;26.00;63.10;;;;;;5079322;28;20016;-78
2022/07/30 10:53:02;;;;;;;2.35;1.50;;;26.10;63.00;;;;;;5077747;28;20020;-80
2022/07/30 10:55:30;;;;;;;4.55;1.42;;;26.20;62.70;;;;;;5091711;28;20039;-80
2022/07/30 10:58:02;;;;;;;2.58;1.80;;;26.40;62.50;;;;;;5090496;28;20078;-79
2022/07/30 11:00:30;;;;;;;2.65;1.55;;;26.50;62.20;;;;;;5110288;28;20070;-79
2022/07/30 11:03:16;;;;;;;3.42;1.55;;;26.60;60.90;;;;;;5091903;28;20032;-81
2022/07/30 11:05:47;;;;;;;3.75;1.48;;;26.70;59.20;;;;;;5088239;28;20077;-79
2022/07/30 11:08:35;;;;;;;2.13;1.50;;;26.80;59.30;;;;;;5079435;28;20059;-79
2022/07/30 11:11:02;;;;;;;3.17;1.33;;;26.60;58.60;;;;;;5098683;28;20080;-79
2022/07/30 11:13:50;;;;;;;2.05;1.20;;;26.60;59.20;;;;;;5097599;28;20028;-77
2022/07/30 11:16:20;;;;;;;2.90;1.33;;;26.80;58.90;;;;;;5097862;28;20036;-78
2022/07/30 11:19:04;;;;;;;2.20;1.40;;;26.90;59.30;;;;;;5085705;28;20031;-77
2022/07/30 11:21:31;;;;;;;2.47;1.40;;;27.00;58.40;;;;;;5097760;28;20035;-79
2022/07/30 11:23:58;;;;;;;2.35;1.30;;;27.00;58.00;;;;;;5096925;28;20380;-79
2022/07/30 11:26:40;;;;;;;3.35;1.40;;;26.90;58.50;;;;;;5081185;28;20072;-82
2022/07/30 11:29:07;;;;;;;8.10;1.90;;;26.90;58.10;;;;;;5092029;28;20085;-81
2022/07/30 11:31:34;;;;;;;4.07;1.40;;;26.80;59.10;;;;;;5090286;28;20031;-81
2022/07/30 11:34:18;;;;;;;4.10;1.70;;;27.00;58.90;;;;;;5077989;28;20080;-81
2022/07/30 11:37:19;;;;;;;3.45;1.40;;;27.00;58.60;;;;;;5077970;28;20522;-81
2022/07/30 11:40:05;;;;;;;2.40;1.38;;;27.20;57.80;;;;;;5004148;28;20030;-79
2022/07/30 11:42:36;;;;;;;2.85;1.20;;;27.20;57.80;;;;;;5094339;28;20031;-79
2022/07/30 11:45:17;;;;;;;5.47;1.52;;;27.40;57.60;;;;;;5091565;28;20028;-79
2022/07/30 11:47:50;;;;;;;2.92;1.35;;;27.50;56.60;;;;;;5090037;28;20024;-79
2022/07/30 11:50:20;;;;;;;2.42;1.60;;;27.60;56.80;;;;;;5112551;28;20094;-78
2022/07/30 11:52:50;;;;;;;2.85;1.30;;;27.70;56.60;;;;;;5089216;28;20028;-77
2022/07/30 11:55:29;;;;;;;2.25;1.20;;;27.70;56.70;;;;;;5109945;28;20106;-79
2022/07/30 11:57:55;;;;;;;3.50;1.33;;;27.70;56.10;;;;;;5093153;28;20028;-78
2022/07/30 12:00:21;;;;;;;5.85;1.20;;;27.70;56.10;;;;;;5095149;28;20035;-79
2022/07/30 12:02:48;;;;;;;2.40;1.23;;;27.80;56.10;;;;;;5112843;28;20030;-79
2022/07/30 12:05:14;;;;;;;3.92;1.40;;;27.80;56.00;;;;;;5085185;28;20024;-80
2022/07/30 12:07:40;;;;;;;4.70;1.20;;;27.90;55.30;;;;;;5083734;28;20023;-80
2022/07/30 12:10:17;;;;;;;1.63;1.08;;;27.90;55.20;;;;;;5080981;28;20035;-84
2022/07/30 12:12:44;;;;;;;4.38;1.33;;;27.90;54.30;;;;;;5089788;28;20456;-83
2022/07/30 12:15:26;;;;;;;1.83;0.90;;;27.80;54.30;;;;;;5118947;28;20055;-86
2022/07/30 12:17:52;;;;;;;3.03;1.13;;;27.80;54.30;;;;;;5098903;28;20031;-86
2022/07/30 12:20:19;;;;;;;2.30;1.08;;;27.80;54.50;;;;;;5117711;28;20031;-87
2022/07/30 12:22:46;;;;;;;1.98;1.20;;;28.00;54.20;;;;;;5086977;28;20024;-85
2022/07/30 12:25:12;;;;;;;3.80;0.93;;;28.10;53.80;;;;;;5078651;28;20119;-85
2022/07/30 12:27:39;;;;;;;2.83;0.90;;;28.10;53.40;;;;;;5094888;28;20069;-85
2022/07/30 12:30:07;;;;;;;1.50;1.00;;;28.00;53.70;;;;;;5113845;28;20031;-85
2022/07/30 12:32:34;;;;;;;1.30;0.80;;;28.10;53.60;;;;;;5091694;28;20484;-85
2022/07/30 12:34:59;;;;;;;2.67;2.10;;;28.10;53.10;;;;;;5106800;28;20027;-85
2022/07/30 12:37:25;;;;;;;2.55;1.60;;;28.20;53.40;;;;;;5113500;28;20056;-84
2022/07/30 12:40:15;;;;;;;2.60;1.20;;;28.30;52.80;;;;;;5080516;28;20028;-84
2022/07/30 12:42:51;;;;;;;1.83;1.10;;;28.30;52.30;;;;;;5098629;28;20031;-85
2022/07/30 12:45:27;;;;;;;3.60;1.30;;;28.30;52.40;;;;;;5091878;28;20095;-83
2022/07/30 12:47:53;;;;;;;2.75;1.10;;;28.30;52.60;;;;;;5097894;28;20050;-84
2022/07/30 12:50:18;;;;;;;5.30;1.25;;;28.20;52.60;;;;;;5098853;28;20027;-84
2022/07/30 12:52:50;;;;;;;3.13;1.10;;;28.30;52.70;;;;;;5098113;28;20030;-85
2022/07/30 12:55:16;;;;;;;;;;;28.30;52.30;;;;;;5113435;28;20057;-83